This is the latest recevied weather packets stored in our database for station/object CYXY. If no packets are shown the sender has not sent any weather packets the latest 1 day(s).
| Time | Temp. | Humidity | Pressure | Rain* | Wind** | Luminosity | Snow |
|---|---|---|---|---|---|---|---|
| 1778095400 | 10° C | 34% | 1011.2 hPa | - | - | - | - |
| 1778094801 | 10° C | 34% | 1011.2 hPa | - | - | - | - |
| 1778093003 | 8.89° C | 36% | 1011.2 hPa | - | - | - | - |
| 1778092405 | 8.89° C | 36% | 1011.2 hPa | - | - | - | - |
| 1778091203 | 8.89° C | 36% | 1011.2 hPa | - | - | - | - |
| 1778088204 | 7.78° C | 45% | 1011.5 hPa | - | - | - | - |
| 1778086406 | 5.56° C | 52% | 1011.5 hPa | - | - | - | - |
| 1778083526 | 3.89° C | 60% | 1011.5 hPa | - | - | - | - |
| 1778082808 | 3.89° C | 60% | 1011.5 hPa | - | - | - | - |
| 1778076200 | 1.67° C | 69% | 1010.5 hPa | - | - | - | - |
| 1778074397 | 1.67° C | 69% | 1010.5 hPa | - | - | - | - |
| 1778073799 | 1.67° C | 69% | 1010.5 hPa | - | - | - | - |
| 1778073202 | 1.67° C | 69% | 1010.5 hPa | - | - | - | - |
| 1778072603 | 1.67° C | 69% | 1009.8 hPa | - | - | - | - |
| 1778070202 | 1.67° C | 69% | 1009.8 hPa | - | - | - | - |
| 1778069000 | 3.89° C | 60% | 1009.5 hPa | - | - | - | - |
| 1778068401 | 3.89° C | 60% | 1009.5 hPa | - | - | - | - |
| 1778067199 | 3.89° C | 60% | 1009.5 hPa | - | - | - | - |
| 1778066604 | 3.89° C | 60% | 1009.5 hPa | - | - | - | - |
| 1778066003 | 3.89° C | 60% | 1009.5 hPa | - | - | - | - |
| 1778065400 | 3.89° C | 60% | 1009.1 hPa | - | - | - | - |
| 1778064800 | 3.89° C | 60% | 1009.1 hPa | - | - | - | - |
| 1778064203 | 3.89° C | 60% | 1009.1 hPa | - | - | - | - |
| 1778062401 | 3.89° C | 60% | 1009.1 hPa | - | - | - | - |
| 1778061802 | 3.89° C | 64% | 1009.1 hPa | - | - | - | - |
* Rain since midnight (hover to see other rain measurements)
** Current wind speed in m/s (hover to see current wind gust speed)